Time;durP1;ratioP1;P1;durP2;ratioP2;P2;SDS_P1;SDS_P2;PMS_P1;PMS_P2;Temp;Humidity;BMP_temperature;BMP_pressure;BME280_temperature;BME280_humidity;BME280_pressure;Samples;Min_cycle;Max_cycle;Signal;HPM_P1;HPM_P2
2021/05/19 07:03:18;;;;;;;4.45;1.65;;;17.60;53.70;;;;;;5109438;27;20362;-64
2021/05/19 07:05:44;;;;;;;4.63;1.50;;;18.80;50.00;;;;;;5105392;28;20036;-61
2021/05/19 07:08:10;;;;;;;3.92;1.60;;;18.70;50.00;;;;;;5105472;28;20087;-62
2021/05/19 07:10:35;;;;;;;4.43;1.60;;;18.30;50.30;;;;;;5108320;27;20051;-59
2021/05/19 07:13:03;;;;;;;3.28;1.58;;;18.40;50.60;;;;;;5102459;27;20047;-62
2021/05/19 07:15:32;;;;;;;3.78;1.60;;;18.80;49.90;;;;;;5106996;28;20091;-61
2021/05/19 07:18:05;;;;;;;4.13;1.80;;;19.30;48.50;;;;;;5106992;28;20081;-61
2021/05/19 07:20:31;;;;;;;4.90;1.55;;;19.60;48.10;;;;;;5106590;28;20032;-62
2021/05/19 07:22:57;;;;;;;3.00;1.75;;;19.90;46.90;;;;;;5108917;28;20390;-63
2021/05/19 07:25:23;;;;;;;4.50;1.60;;;20.10;46.90;;;;;;5108561;28;20419;-60
2021/05/19 07:27:49;;;;;;;5.07;1.77;;;20.80;45.90;;;;;;5111948;28;20456;-61
2021/05/19 07:30:15;;;;;;;4.45;1.30;;;21.40;44.30;;;;;;5101346;28;20047;-60
2021/05/19 07:32:41;;;;;;;2.90;1.52;;;21.80;43.30;;;;;;5105578;28;20034;-60
2021/05/19 07:35:07;;;;;;;3.05;1.50;;;21.80;42.10;;;;;;5103482;28;20481;-62
2021/05/19 07:37:33;;;;;;;5.00;1.40;;;21.80;42.40;;;;;;5105082;28;20028;-62
2021/05/19 07:39:58;;;;;;;2.78;1.50;;;21.70;42.20;;;;;;5107001;28;20050;-59
2021/05/19 07:42:24;;;;;;;3.55;1.70;;;22.00;42.50;;;;;;5071985;22;20060;-60
2021/05/19 07:44:50;;;;;;;4.65;1.65;;;22.40;41.20;;;;;;5052158;28;20035;-60
2021/05/19 07:47:16;;;;;;;6.20;1.80;;;22.20;41.10;;;;;;5046713;28;20161;-60
2021/05/19 07:49:41;;;;;;;4.60;1.83;;;22.40;40.70;;;;;;5058834;28;20028;-61
2021/05/19 07:52:07;;;;;;;4.43;2.17;;;22.30;41.00;;;;;;5063465;28;20044;-59
2021/05/19 07:54:35;;;;;;;7.85;3.20;;;21.70;41.80;;;;;;5055838;28;20033;-61
2021/05/19 08:00:06;;;;;;;3.63;2.00;;;21.90;41.70;;;;;;5042979;28;20112;-60
2021/05/19 08:02:32;;;;;;;6.50;1.80;;;21.80;41.80;;;;;;5049619;28;20041;-60
2021/05/19 08:04:58;;;;;;;6.22;1.63;;;21.80;42.20;;;;;;5036482;28;20163;-60
2021/05/19 08:07:24;;;;;;;3.10;2.10;;;21.90;42.80;;;;;;5021287;28;20064;-59
2021/05/19 08:09:49;;;;;;;6.07;1.77;;;22.20;42.30;;;;;;5040772;28;20497;-61
2021/05/19 08:12:15;;;;;;;5.82;1.98;;;22.10;42.00;;;;;;5036771;28;20037;-62
2021/05/19 08:14:41;;;;;;;9.05;2.25;;;22.20;42.20;;;;;;5054818;28;20501;-53
2021/05/19 08:17:07;;;;;;;4.60;2.00;;;22.40;41.90;;;;;;5059331;28;20450;-61
2021/05/19 08:19:33;;;;;;;5.10;1.95;;;22.40;41.40;;;;;;5053972;28;20039;-63
2021/05/19 08:21:59;;;;;;;12.48;2.10;;;22.70;41.10;;;;;;5060359;28;20252;-61
2021/05/19 08:24:25;;;;;;;5.90;2.10;;;23.00;40.50;;;;;;5057140;28;20037;-63
2021/05/19 08:26:51;;;;;;;3.40;1.70;;;23.00;40.60;;;;;;5043057;28;20043;-59
2021/05/19 08:29:17;;;;;;;3.75;1.80;;;23.00;40.20;;;;;;5033876;28;20020;-62
2021/05/19 08:31:43;;;;;;;5.45;1.98;;;22.90;40.70;;;;;;5051418;28;20055;-59
2021/05/19 08:34:09;;;;;;;2.70;2.05;;;23.00;40.80;;;;;;5043125;28;20345;-60
2021/05/19 08:36:34;;;;;;;5.07;1.95;;;23.50;40.10;;;;;;5063047;28;20029;-60
2021/05/19 08:39:00;;;;;;;3.65;1.80;;;23.60;39.20;;;;;;5049807;28;20070;-61
2021/05/19 08:41:27;;;;;;;4.93;1.85;;;23.80;39.30;;;;;;5063003;28;20044;-61
2021/05/19 08:43:53;;;;;;;6.53;1.60;;;23.90;39.00;;;;;;5048963;28;20040;-61
2021/05/19 08:46:19;;;;;;;5.10;1.70;;;23.90;38.40;;;;;;5027345;28;20458;-61
2021/05/19 08:48:52;;;;;;;4.65;1.58;;;23.80;38.30;;;;;;5025293;28;20036;-58
2021/05/19 08:54:06;;;;;;;4.00;2.13;;;23.50;38.10;;;;;;5045448;28;20064;-62
2021/05/19 08:56:36;;;;;;;3.30;1.35;;;23.30;38.50;;;;;;5044419;28;20029;-63
2021/05/19 08:59:02;;;;;;;3.90;1.80;;;22.90;39.20;;;;;;5039027;28;20017;-62
2021/05/19 09:01:45;;;;;;;3.15;1.80;;;22.90;39.20;;;;;;5041395;28;20047;-60
2021/05/19 09:04:33;;;;;;;3.13;1.47;;;22.60;39.50;;;;;;5037306;28;20036;-62
2021/05/19 09:07:00;;;;;;;3.25;1.40;;;22.20;40.30;;;;;;5043932;28;20055;-59
2021/05/19 09:09:36;;;;;;;7.72;1.90;;;22.00;41.10;;;;;;5041127;28;20028;-62
2021/05/19 09:12:04;;;;;;;14.15;2.13;;;22.20;41.20;;;;;;5043419;28;20033;-62
2021/05/19 09:14:38;;;;;;;5.10;1.70;;;22.20;40.60;;;;;;5030440;28;20025;-62
2021/05/19 09:17:30;;;;;;;3.53;1.30;;;22.10;40.90;;;;;;5016772;28;20287;-56
2021/05/19 09:20:11;;;;;;;3.45;1.33;;;22.20;40.60;;;;;;5024333;28;20040;-63
2021/05/19 09:22:39;;;;;;;3.83;1.60;;;21.80;41.00;;;;;;5047248;28;20063;-63
2021/05/19 09:25:14;;;;;;;4.45;1.60;;;21.30;41.80;;;;;;5037887;28;20037;-62
2021/05/19 09:27:43;;;;;;;2.53;1.30;;;21.40;41.80;;;;;;5019465;28;20199;-62
2021/05/19 09:30:11;;;;;;;2.72;1.60;;;21.50;42.00;;;;;;5044702;28;20354;-63
2021/05/19 09:32:39;;;;;;;3.63;1.50;;;21.80;41.80;;;;;;5034044;28;20064;-62
2021/05/19 09:35:07;;;;;;;9.13;1.77;;;21.90;41.60;;;;;;5043738;28;20024;-63
2021/05/19 09:37:34;;;;;;;7.65;2.00;;;21.90;41.70;;;;;;5036806;28;20029;-63
2021/05/19 09:40:01;;;;;;;4.18;2.75;;;22.00;41.40;;;;;;5026721;28;20115;-63
2021/05/19 09:42:42;;;;;;;3.80;1.60;;;22.00;41.30;;;;;;5041578;28;20061;-65
2021/05/19 09:45:39;;;;;;;3.45;1.70;;;21.80;41.70;;;;;;5041160;28;20031;-59
2021/05/19 09:48:06;;;;;;;4.38;1.73;;;21.70;41.10;;;;;;5031053;28;20048;-63
2021/05/19 09:50:45;;;;;;;7.25;1.70;;;21.60;41.70;;;;;;5031170;28;20039;-62
2021/05/19 09:53:13;;;;;;;9.73;2.70;;;21.70;41.60;;;;;;5043876;28;20025;-66
2021/05/19 09:56:06;;;;;;;29.20;2.60;;;22.00;41.40;;;;;;5035650;28;20029;-63
2021/05/19 09:58:38;;;;;;;8.77;1.40;;;22.10;40.80;;;;;;5024087;28;20048;-62
2021/05/19 10:01:05;;;;;;;4.95;1.70;;;22.10;40.70;;;;;;5042037;28;20147;-63
2021/05/19 10:03:34;;;;;;;3.95;1.33;;;22.20;40.30;;;;;;5024168;28;20622;-62
2021/05/19 10:08:38;;;;;;;5.00;1.98;;;22.00;40.40;;;;;;5036486;28;20040;-64
2021/05/19 10:11:05;;;;;;;5.53;1.55;;;21.90;40.60;;;;;;5043707;28;20033;-59
2021/05/19 10:13:33;;;;;;;3.63;1.60;;;21.80;40.80;;;;;;5033795;28;20363;-61
2021/05/19 10:16:04;;;;;;;5.03;2.00;;;22.00;40.90;;;;;;5032337;28;20025;-63
2021/05/19 10:18:34;;;;;;;8.48;1.70;;;22.00;40.50;;;;;;5049315;28;20056;-64
2021/05/19 10:21:01;;;;;;;3.35;1.80;;;22.30;40.20;;;;;;5046187;28;20048;-63
2021/05/19 10:23:40;;;;;;;4.28;1.55;;;22.20;40.00;;;;;;5053578;28;20328;-59
2021/05/19 10:26:11;;;;;;;7.07;1.90;;;22.10;40.20;;;;;;5035265;28;20047;-64
2021/05/19 10:28:43;;;;;;;3.30;1.70;;;22.30;40.00;;;;;;5026951;28;20601;-63
2021/05/19 10:31:25;;;;;;;8.20;1.77;;;22.10;40.00;;;;;;5024202;28;20029;-64
2021/05/19 10:33:54;;;;;;;3.78;2.10;;;22.10;39.80;;;;;;5020103;28;20037;-60
2021/05/19 10:36:36;;;;;;;3.85;1.55;;;22.20;40.00;;;;;;5025863;28;20052;-61
2021/05/19 10:39:08;;;;;;;5.55;2.30;;;22.10;39.70;;;;;;5041509;28;20029;-62
2021/05/19 10:41:47;;;;;;;2.38;1.52;;;21.90;40.00;;;;;;5046799;28;20048;-63
2021/05/19 10:44:18;;;;;;;3.85;1.50;;;21.80;40.30;;;;;;5047195;28;20044;-63
2021/05/19 10:46:56;;;;;;;3.42;1.45;;;21.90;40.60;;;;;;5021669;28;20032;-58
2021/05/19 10:49:44;;;;;;;3.42;1.80;;;21.60;41.60;;;;;;5022261;28;20025;-64
2021/05/19 10:57:59;;;;;;;4.22;2.38;;;21.30;43.70;;;;;;5030260;28;20071;-63
2021/05/19 11:00:25;;;;;;;5.80;2.67;;;21.30;44.10;;;;;;5025353;28;20025;-57
2021/05/19 11:02:58;;;;;;;4.80;2.40;;;21.30;44.40;;;;;;5053080;28;20112;-65
2021/05/19 11:05:28;;;;;;;5.05;2.30;;;21.20;45.10;;;;;;5039432;28;20030;-64
2021/05/19 11:08:06;;;;;;;5.40;2.55;;;21.20;44.50;;;;;;5022122;28;20053;-65
2021/05/19 11:10:38;;;;;;;5.50;2.83;;;21.50;44.20;;;;;;5030305;28;20460;-62
2021/05/19 11:13:04;;;;;;;6.15;2.40;;;21.70;43.40;;;;;;5024555;28;20052;-62
2021/05/19 11:20:55;;;;;;;5.13;2.58;;;22.20;42.20;;;;;;5039034;28;20041;-62
2021/05/19 11:23:21;;;;;;;6.53;2.90;;;22.20;42.50;;;;;;5033724;28;20029;-62
2021/05/19 11:25:49;;;;;;;4.30;2.50;;;22.00;42.80;;;;;;5043740;28;20037;-58
2021/05/19 11:28:24;;;;;;;5.55;2.47;;;21.60;42.80;;;;;;5026842;28;20037;-58
2021/05/19 11:30:50;;;;;;;3.55;2.60;;;21.70;43.20;;;;;;5034701;28;20040;-66
2021/05/19 11:33:21;;;;;;;6.40;2.58;;;21.70;43.30;;;;;;5044065;28;20387;-64
2021/05/19 11:35:49;;;;;;;5.55;3.53;;;21.80;43.40;;;;;;5059505;28;20036;-60
2021/05/19 11:38:17;;;;;;;4.68;2.30;;;22.10;42.90;;;;;;5040053;28;20020;-65
2021/05/19 11:40:51;;;;;;;10.18;2.60;;;22.10;42.50;;;;;;5058626;28;20056;-67
2021/05/19 11:43:20;;;;;;;3.53;2.38;;;22.30;42.40;;;;;;5017794;28;20063;-60
2021/05/19 11:45:55;;;;;;;3.80;2.28;;;22.30;42.30;;;;;;5055854;28;20032;-55
2021/05/19 11:48:26;;;;;;;3.65;2.20;;;22.40;42.00;;;;;;5038495;28;20111;-64
2021/05/19 11:50:54;;;;;;;5.72;2.50;;;22.30;42.10;;;;;;5054127;28;20033;-66
2021/05/19 11:53:20;;;;;;;3.92;2.38;;;22.50;41.90;;;;;;5041571;28;20151;-64
2021/05/19 11:55:53;;;;;;;5.30;2.45;;;22.50;41.80;;;;;;5041217;28;20046;-66
2021/05/19 11:58:22;;;;;;;4.43;2.45;;;22.50;41.40;;;;;;5035785;28;20045;-59
2021/05/19 12:00:58;;;;;;;4.18;2.47;;;22.50;41.40;;;;;;5027548;28;20059;-55
2021/05/19 12:03:30;;;;;;;5.70;2.60;;;22.40;41.80;;;;;;5044093;28;20108;-63
2021/05/19 12:06:00;;;;;;;4.07;2.50;;;22.20;42.30;;;;;;5031508;28;20064;-64
2021/05/19 12:08:35;;;;;;;4.63;2.63;;;22.10;43.10;;;;;;5033019;28;20040;-64
2021/05/19 12:11:14;;;;;;;5.43;2.30;;;22.30;43.00;;;;;;5031155;28;20056;-62
2021/05/19 12:13:45;;;;;;;6.38;2.63;;;22.50;42.50;;;;;;5056333;28;20092;-65
2021/05/19 12:16:19;;;;;;;6.38;2.20;;;22.80;41.00;;;;;;5051587;28;20044;-54
2021/05/19 12:18:57;;;;;;;4.88;2.10;;;22.90;40.10;;;;;;5029978;28;20526;-61
2021/05/19 12:21:23;;;;;;;3.60;1.90;;;23.10;39.30;;;;;;5048327;28;20040;-61
2021/05/19 12:23:49;;;;;;;4.45;2.20;;;22.90;39.10;;;;;;5044170;28;20364;-55
2021/05/19 12:26:15;;;;;;;9.68;2.00;;;23.10;39.40;;;;;;5052594;28;20118;-62
2021/05/19 12:28:41;;;;;;;6.53;3.13;;;23.40;38.90;;;;;;5060522;28;20082;-64
2021/05/19 12:31:07;;;;;;;6.65;2.10;;;23.50;38.20;;;;;;5052727;28;20037;-65
2021/05/19 12:33:41;;;;;;;5.97;2.70;;;23.40;38.30;;;;;;5039900;28;20434;-60
2021/05/19 12:36:08;;;;;;;7.07;2.45;;;23.10;39.30;;;;;;5026256;28;20033;-62
2021/05/19 12:38:48;;;;;;;5.50;2.50;;;22.90;40.40;;;;;;5033558;28;20043;-63
2021/05/19 12:41:33;;;;;;;7.05;2.30;;;22.50;42.30;;;;;;5046864;28;20126;-63
2021/05/19 12:44:00;;;;;;;7.18;2.40;;;21.70;43.60;;;;;;5051543;28;20024;-64
2021/05/19 12:46:25;;;;;;;4.60;2.50;;;21.30;46.20;;;;;;5045279;28;20050;-63
2021/05/19 12:48:51;;;;;;;9.30;3.10;;;21.00;48.60;;;;;;5037814;28;20036;-60
2021/05/19 12:51:17;;;;;;;10.30;3.30;;;20.80;50.80;;;;;;5049440;28;20055;-64
2021/05/19 12:53:48;;;;;;;7.47;2.47;;;20.60;51.60;;;;;;5038707;28;20142;-63
2021/05/19 12:56:23;;;;;;;6.40;2.20;;;20.40;51.50;;;;;;5039115;28;20059;-64
2021/05/19 12:59:09;;;;;;;2.22;1.67;;;20.00;52.00;;;;;;5039924;28;20692;-63
2021/05/19 13:01:46;;;;;;;3.88;1.70;;;19.80;52.70;;;;;;5025850;28;20078;-63
2021/05/19 13:04:13;;;;;;;3.20;1.83;;;19.50;54.20;;;;;;5029243;28;20447;-61
2021/05/19 13:06:39;;;;;;;6.38;1.63;;;19.30;53.70;;;;;;5041307;28;20024;-63
2021/05/19 13:09:10;;;;;;;4.88;1.90;;;19.10;53.90;;;;;;5042373;28;20099;-64
2021/05/19 13:14:57;;;;;;;4.03;1.88;;;18.30;54.30;;;;;;5038057;28;20037;-62
2021/05/19 13:17:29;;;;;;;3.58;1.73;;;18.20;54.90;;;;;;5006205;28;20037;-61
2021/05/19 13:20:03;;;;;;;4.63;2.10;;;18.10;54.20;;;;;;5010346;28;20059;-62
2021/05/19 13:22:29;;;;;;;5.13;1.42;;;17.80;55.70;;;;;;5049933;28;20036;-62
2021/05/19 13:24:55;;;;;;;4.00;1.80;;;17.60;56.10;;;;;;5027130;28;20025;-61
2021/05/19 13:27:32;;;;;;;5.07;2.58;;;17.60;57.80;;;;;;5044179;28;20118;-62
2021/05/19 13:30:03;;;;;;;6.78;2.55;;;17.60;58.00;;;;;;5044432;28;20040;-60
2021/05/19 13:37:52;;;;;;;4.03;2.60;;;17.70;58.60;;;;;;5044197;28;20105;-53
2021/05/19 13:40:17;;;;;;;5.68;2.45;;;17.80;57.30;;;;;;5042209;28;20138;-60
2021/05/19 13:42:43;;;;;;;5.43;2.90;;;17.80;57.10;;;;;;5045518;28;20033;-61
2021/05/19 13:45:10;;;;;;;5.18;3.00;;;17.80;57.10;;;;;;5038914;28;20423;-64
2021/05/19 13:47:38;;;;;;;8.45;3.80;;;17.90;57.60;;;;;;5043323;28;20336;-61
2021/05/19 13:50:04;;;;;;;5.65;3.17;;;18.20;57.50;;;;;;5036395;28;20064;-64
2021/05/19 13:52:31;;;;;;;6.40;2.80;;;18.40;56.80;;;;;;5040933;28;20075;-59
2021/05/19 13:57:41;;;;;;;4.78;3.30;;;18.70;55.70;;;;;;5038610;28;20493;-62
2021/05/19 14:00:07;;;;;;;6.75;3.28;;;19.00;56.20;;;;;;5052906;28;20033;-62
2021/05/19 14:02:33;;;;;;;10.85;3.42;;;19.10;55.30;;;;;;5048946;28;20029;-63
2021/05/19 14:04:59;;;;;;;5.10;3.38;;;19.50;55.00;;;;;;5042156;28;20102;-62
2021/05/19 14:07:25;;;;;;;8.48;3.60;;;19.60;55.00;;;;;;5048213;28;20096;-63
2021/05/19 14:09:51;;;;;;;4.65;3.05;;;19.70;54.50;;;;;;5049095;28;20033;-63
2021/05/19 14:12:31;;;;;;;7.13;3.00;;;19.80;54.20;;;;;;5053581;28;20036;-62
2021/05/19 14:15:06;;;;;;;4.30;2.60;;;19.80;54.10;;;;;;5035208;28;20036;-62
2021/05/19 14:28:08;;;;;;;4.57;2.40;;;19.70;55.20;;;;;;5053910;28;20042;-62
2021/05/19 14:30:34;;;;;;;5.53;2.30;;;19.50;55.20;;;;;;5029351;28;20491;-62
2021/05/19 14:32:59;;;;;;;4.15;2.45;;;19.30;55.20;;;;;;5051002;28;20041;-62
2021/05/19 14:58:56;;;;;;;4.50;1.63;;;18.20;55.20;;;;;;5040234;28;20040;-58
2021/05/19 15:00:18;;;;;;;3.97;2.63;;;18.00;57.70;;;;;;5034420;28;20506;-54
2021/05/19 15:02:45;;;;;;;4.18;2.28;;;18.00;58.30;;;;;;5022596;28;20124;-60
2021/05/19 15:05:11;;;;;;;4.22;2.40;;;18.10;58.40;;;;;;5041679;28;20025;-64
2021/05/19 15:07:37;;;;;;;3.47;2.10;;;18.10;58.80;;;;;;5027812;28;20123;-61
2021/05/19 15:10:05;;;;;;;4.45;2.15;;;18.20;58.50;;;;;;5055298;28;20111;-63
2021/05/19 15:12:32;;;;;;;4.05;2.40;;;18.10;58.80;;;;;;5035025;28;20047;-60
2021/05/19 15:14:58;;;;;;;5.03;1.85;;;18.20;58.50;;;;;;5045865;28;20033;-59
2021/05/19 15:17:24;;;;;;;3.53;2.25;;;18.20;57.70;;;;;;5058819;28;20032;-61
2021/05/19 15:19:51;;;;;;;2.78;1.75;;;18.10;58.00;;;;;;5024258;28;20039;-60
2021/05/19 15:22:17;;;;;;;3.47;2.20;;;17.90;59.30;;;;;;5026476;28;20033;-62
2021/05/19 15:24:44;;;;;;;4.35;2.92;;;17.80;61.20;;;;;;5047953;28;20043;-62
2021/05/19 15:27:10;;;;;;;3.72;2.30;;;17.80;61.60;;;;;;5045511;28;20040;-62
2021/05/19 15:29:38;;;;;;;4.60;2.20;;;17.80;61.40;;;;;;5042996;28;20032;-62
2021/05/19 15:32:06;;;;;;;3.97;2.42;;;17.70;61.10;;;;;;5048773;28;20123;-63
2021/05/19 15:34:32;;;;;;;4.00;2.40;;;17.60;61.10;;;;;;5042131;28;20046;-61
2021/05/19 15:36:58;;;;;;;3.85;2.60;;;17.60;60.50;;;;;;5043465;28;20037;-61
2021/05/19 15:39:24;;;;;;;4.32;2.17;;;17.40;61.60;;;;;;5046362;28;20120;-63
2021/05/19 15:41:49;;;;;;;6.20;3.03;;;17.30;62.60;;;;;;5038341;28;20416;-64
2021/05/19 15:44:15;;;;;;;5.50;2.20;;;17.30;63.20;;;;;;5048656;28;20394;-63
2021/05/19 15:46:41;;;;;;;3.17;2.40;;;17.20;62.70;;;;;;5046758;28;20025;-59
2021/05/19 15:49:07;;;;;;;4.10;2.35;;;17.20;62.30;;;;;;5041153;28;20447;-62
2021/05/19 15:51:33;;;;;;;5.65;2.78;;;17.30;62.40;;;;;;5050222;28;20443;-67
2021/05/19 15:54:01;;;;;;;16.80;6.47;;;17.40;62.30;;;;;;5046236;28;20120;-61
2021/05/19 15:56:27;;;;;;;8.50;3.00;;;17.40;62.50;;;;;;5024755;28;20036;-64
2021/05/19 15:58:53;;;;;;;24.02;5.18;;;17.50;62.70;;;;;;5034703;28;20025;-62
2021/05/19 16:01:20;;;;;;;12.35;4.40;;;17.50;63.80;;;;;;5043806;28;20204;-64
2021/05/19 16:03:46;;;;;;;5.82;3.47;;;17.60;63.60;;;;;;5042217;28;20108;-64
2021/05/19 16:06:12;;;;;;;4.35;2.13;;;17.50;63.60;;;;;;5028623;28;20455;-61
2021/05/19 16:08:39;;;;;;;4.55;3.33;;;17.50;63.80;;;;;;5027997;28;20070;-66
2021/05/19 16:11:05;;;;;;;4.63;2.90;;;17.40;65.30;;;;;;5030110;28;20079;-64
2021/05/19 16:13:33;;;;;;;5.18;2.80;;;17.40;64.70;;;;;;5026049;28;20060;-63
2021/05/19 16:15:59;;;;;;;6.70;3.70;;;17.10;64.40;;;;;;5024693;28;20025;-62
2021/05/19 16:18:25;;;;;;;6.40;3.80;;;17.00;65.60;;;;;;5041984;28;20064;-62
2021/05/19 16:20:51;;;;;;;6.18;3.63;;;17.00;66.20;;;;;;5044077;28;20451;-61
2021/05/19 16:23:17;;;;;;;6.70;4.13;;;17.00;66.60;;;;;;5024491;28;20373;-62
2021/05/19 16:25:43;;;;;;;4.85;3.42;;;17.00;66.50;;;;;;5029134;28;20387;-62
2021/05/19 16:28:08;;;;;;;4.97;3.70;;;17.00;66.90;;;;;;5043367;28;20021;-63
2021/05/19 16:31:07;;;;;;;6.07;3.88;;;17.00;66.60;;;;;;5043776;28;20040;-62
2021/05/19 16:34:08;;;;;;;7.85;4.15;;;17.10;66.40;;;;;;5041667;28;20041;-57
2021/05/19 16:36:36;;;;;;;6.60;3.97;;;17.10;66.40;;;;;;5042356;28;20033;-60
2021/05/19 16:39:04;;;;;;;5.22;3.92;;;17.20;66.20;;;;;;5045629;28;20057;-61
2021/05/19 16:41:31;;;;;;;6.88;5.00;;;17.30;66.60;;;;;;5044974;28;20144;-61
2021/05/19 16:43:58;;;;;;;7.18;4.10;;;17.20;66.60;;;;;;5031292;28;20082;-62
2021/05/19 16:46:24;;;;;;;5.90;4.07;;;17.20;67.00;;;;;;5024176;28;20107;-61
2021/05/19 16:49:10;;;;;;;5.32;3.30;;;17.10;67.10;;;;;;5040084;28;20104;-61
2021/05/19 16:51:53;;;;;;;11.20;3.08;;;17.00;67.70;;;;;;5032984;28;20037;-62
2021/05/19 16:54:22;;;;;;;5.03;3.40;;;16.80;68.20;;;;;;5028697;28;20036;-62
2021/05/19 16:56:49;;;;;;;6.72;3.42;;;16.70;68.80;;;;;;5020121;28;20288;-62
2021/05/19 16:59:16;;;;;;;7.18;3.28;;;16.70;68.80;;;;;;5042217;28;20108;-59
2021/05/19 17:06:54;;;;;;;6.63;3.85;;;16.60;68.70;;;;;;5039271;28;20059;-61
2021/05/19 17:09:23;;;;;;;5.13;3.40;;;16.50;68.50;;;;;;5048798;28;20111;-63
2021/05/19 17:11:50;;;;;;;6.45;4.15;;;16.50;67.90;;;;;;5032988;28;20044;-62
2021/05/19 17:14:17;;;;;;;7.50;5.13;;;16.50;68.00;;;;;;5030408;28;20032;-61
2021/05/19 17:16:42;;;;;;;8.30;4.53;;;16.70;68.50;;;;;;5029241;28;20040;-58
2021/05/19 17:19:08;;;;;;;11.05;4.20;;;16.70;68.50;;;;;;5039502;28;20389;-60
2021/05/19 17:21:35;;;;;;;12.88;8.35;;;16.80;66.60;;;;;;5038232;28;20025;-60
2021/05/19 17:24:02;;;;;;;6.60;3.35;;;16.80;65.90;;;;;;5038129;28;20133;-60
2021/05/19 17:26:28;;;;;;;9.45;4.15;;;16.80;65.60;;;;;;5026742;28;20364;-55
2021/05/19 17:28:54;;;;;;;5.72;3.30;;;16.90;64.80;;;;;;5027700;28;20451;-58
2021/05/19 17:31:20;;;;;;;6.90;3.20;;;16.90;63.60;;;;;;5012118;28;20330;-61
2021/05/19 17:33:46;;;;;;;5.65;3.50;;;16.90;63.00;;;;;;5040480;28;20103;-56
2021/05/19 17:36:21;;;;;;;21.73;3.70;;;16.80;62.80;;;;;;5047614;28;20058;-63
2021/05/19 17:38:50;;;;;;;6.35;2.72;;;16.80;62.70;;;;;;5041585;28;20125;-62
2021/05/19 17:41:22;;;;;;;7.40;2.17;;;16.70;62.60;;;;;;5043083;28;20045;-61
2021/05/19 17:43:52;;;;;;;10.68;3.30;;;16.60;62.80;;;;;;5028369;28;20140;-60
2021/05/19 17:46:19;;;;;;;5.03;2.80;;;16.60;64.00;;;;;;5039891;28;20590;-61
2021/05/19 17:49:07;;;;;;;7.20;3.72;;;16.60;64.50;;;;;;5026360;28;20440;-61
2021/05/19 17:51:39;;;;;;;3.60;2.40;;;16.50;63.70;;;;;;5023402;28;20047;-64
2021/05/19 17:54:06;;;;;;;3.28;2.10;;;16.40;64.00;;;;;;5039236;28;20109;-57
2021/05/19 17:56:32;;;;;;;5.35;2.90;;;16.40;64.10;;;;;;5023780;28;20032;-62
2021/05/19 17:58:59;;;;;;;5.55;2.63;;;16.50;64.40;;;;;;5024918;28;20033;-62
2021/05/19 18:01:29;;;;;;;3.92;2.50;;;16.50;63.90;;;;;;5039812;28;20029;-62
2021/05/19 18:03:55;;;;;;;3.60;2.33;;;16.50;63.70;;;;;;5040527;28;20059;-60
2021/05/19 18:06:21;;;;;;;4.53;2.55;;;16.40;63.30;;;;;;5038851;28;20083;-62
2021/05/19 18:08:47;;;;;;;4.28;2.60;;;16.40;63.40;;;;;;5038086;28;20033;-61
2021/05/19 18:11:12;;;;;;;4.45;3.53;;;16.40;63.30;;;;;;5031946;28;20041;-62
2021/05/19 18:13:38;;;;;;;5.25;3.45;;;16.40;63.20;;;;;;5043239;28;20029;-60
2021/05/19 18:16:04;;;;;;;5.65;3.25;;;16.30;63.40;;;;;;5029251;28;20033;-60
2021/05/19 18:18:30;;;;;;;6.30;3.65;;;16.30;63.50;;;;;;5039967;28;20029;-62
2021/05/19 18:20:56;;;;;;;5.55;4.30;;;16.40;63.50;;;;;;5045717;28;22695;-55
2021/05/19 18:23:22;;;;;;;6.60;3.40;;;16.30;63.40;;;;;;5030333;28;20025;-62
2021/05/19 18:25:52;;;;;;;6.47;3.17;;;16.30;63.40;;;;;;5044023;28;20504;-61
2021/05/19 18:28:18;;;;;;;5.20;3.00;;;16.30;63.80;;;;;;5042644;28;20103;-62
2021/05/19 18:33:32;;;;;;;5.05;2.35;;;16.30;63.90;;;;;;5038514;28;20414;-63
2021/05/19 18:35:58;;;;;;;4.43;2.58;;;16.20;63.80;;;;;;5020111;28;20056;-63
2021/05/19 18:38:25;;;;;;;4.82;2.60;;;16.30;63.90;;;;;;5038123;28;20029;-62
2021/05/19 18:40:51;;;;;;;5.70;3.10;;;16.20;64.00;;;;;;5013491;28;20056;-60
2021/05/19 18:43:16;;;;;;;6.38;3.80;;;16.20;64.00;;;;;;5047746;28;20033;-61
2021/05/19 18:45:42;;;;;;;7.75;3.70;;;16.20;64.20;;;;;;5027044;28;20048;-62
2021/05/19 18:48:10;;;;;;;7.53;4.50;;;16.20;64.30;;;;;;5018085;28;20040;-55
2021/05/19 18:50:37;;;;;;;4.65;3.10;;;16.30;64.30;;;;;;5020523;28;20030;-61
2021/05/19 18:53:04;;;;;;;6.88;3.63;;;16.30;63.30;;;;;;5017640;28;20033;-62
2021/05/19 18:55:31;;;;;;;4.70;3.60;;;16.30;63.30;;;;;;5041822;28;20033;-59
2021/05/19 18:57:57;;;;;;;4.60;2.70;;;16.30;63.70;;;;;;5035832;28;20060;-63
2021/05/19 19:00:24;;;;;;;6.32;2.80;;;16.20;63.30;;;;;;5021409;28;20052;-64
2021/05/19 19:02:53;;;;;;;4.22;2.70;;;16.20;63.10;;;;;;5038057;28;20033;-63
2021/05/19 19:05:19;;;;;;;4.78;2.58;;;16.10;62.90;;;;;;5015823;28;20025;-61
2021/05/19 19:07:44;;;;;;;6.60;2.88;;;16.20;63.30;;;;;;5039282;28;20033;-62
2021/05/19 19:10:13;;;;;;;4.68;2.65;;;16.20;62.80;;;;;;5033689;28;20255;-63
2021/05/19 19:12:41;;;;;;;5.40;2.78;;;16.20;62.80;;;;;;5038819;28;20087;-62
2021/05/19 19:15:07;;;;;;;4.18;2.80;;;16.20;62.80;;;;;;5041733;28;20115;-52
2021/05/19 19:17:33;;;;;;;5.30;2.72;;;16.20;62.40;;;;;;5039536;28;20074;-62
2021/05/19 19:20:00;;;;;;;5.20;3.40;;;16.20;62.50;;;;;;5038889;28;20038;-60
2021/05/19 19:22:26;;;;;;;5.80;3.40;;;16.20;62.60;;;;;;5025494;28;20032;-61
2021/05/19 19:24:52;;;;;;;4.72;3.05;;;16.30;62.50;;;;;;5038959;28;20033;-54
2021/05/19 19:27:19;;;;;;;4.03;3.03;;;16.30;62.30;;;;;;5035497;28;20790;-61
2021/05/19 19:29:46;;;;;;;5.35;2.47;;;16.20;62.40;;;;;;5040241;28;20032;-61
2021/05/19 19:32:12;;;;;;;4.32;3.60;;;16.20;63.40;;;;;;5038234;28;20116;-61
2021/05/19 19:34:39;;;;;;;3.97;3.03;;;16.20;62.90;;;;;;5036832;28;20104;-59
2021/05/19 19:37:05;;;;;;;3.50;2.65;;;16.10;62.80;;;;;;5035067;28;20021;-54
2021/05/19 19:39:31;;;;;;;5.70;4.30;;;16.00;63.00;;;;;;5020861;28;20459;-52
2021/05/19 19:41:57;;;;;;;4.35;3.00;;;15.90;63.30;;;;;;5037232;28;20084;-59
2021/05/19 19:44:27;;;;;;;3.38;2.58;;;15.80;63.50;;;;;;5038073;28;20021;-60
2021/05/19 19:46:54;;;;;;;6.43;3.20;;;15.80;63.30;;;;;;5019852;28;20148;-61
2021/05/19 19:49:21;;;;;;;2.63;2.22;;;15.80;63.70;;;;;;5018067;28;20067;-58
2021/05/19 19:51:48;;;;;;;4.57;2.60;;;15.60;63.80;;;;;;5032149;28;20044;-61
2021/05/19 19:54:16;;;;;;;3.95;2.78;;;15.50;64.40;;;;;;5035829;28;20029;-60
2021/05/19 19:56:43;;;;;;;4.88;2.85;;;15.40;64.80;;;;;;5035723;28;20021;-59
2021/05/19 19:59:09;;;;;;;5.97;4.28;;;15.50;65.00;;;;;;5033828;28;20021;-58
2021/05/19 20:01:59;;;;;;;4.85;2.80;;;15.50;65.30;;;;;;5038576;28;20047;-60
2021/05/19 20:04:24;;;;;;;3.53;2.65;;;15.50;65.70;;;;;;5039788;28;20027;-56
2021/05/19 20:06:51;;;;;;;3.80;2.63;;;15.40;66.30;;;;;;5021746;28;20033;-60
2021/05/19 20:09:17;;;;;;;3.75;2.40;;;15.30;66.60;;;;;;5040574;28;20311;-59
2021/05/19 20:11:44;;;;;;;7.60;3.60;;;15.20;67.20;;;;;;5025468;28;20068;-57
2021/05/19 20:14:10;;;;;;;5.00;2.65;;;15.10;67.30;;;;;;5032098;28;20048;-57
2021/05/19 20:16:37;;;;;;;5.97;3.17;;;15.10;67.20;;;;;;5037292;28;20076;-59
2021/05/19 20:19:04;;;;;;;3.67;2.80;;;15.10;67.60;;;;;;5034398;28;20040;-58
2021/05/19 20:21:31;;;;;;;3.50;2.47;;;15.10;67.50;;;;;;5042214;28;20115;-56
2021/05/19 20:23:58;;;;;;;4.22;3.28;;;15.00;67.90;;;;;;5039271;28;20040;-57
2021/05/19 20:26:30;;;;;;;4.15;3.20;;;14.90;68.30;;;;;;5036174;28;20054;-60
2021/05/19 20:29:16;;;;;;;3.60;3.00;;;14.90;68.20;;;;;;5040122;28;20056;-53
2021/05/19 20:31:46;;;;;;;3.53;2.85;;;14.80;68.40;;;;;;5021313;28;20029;-59
2021/05/19 20:34:13;;;;;;;7.57;2.55;;;14.70;69.40;;;;;;5024592;28;20036;-64
2021/05/19 20:36:40;;;;;;;3.83;2.95;;;14.60;69.30;;;;;;5043118;28;20036;-57
2021/05/19 20:39:09;;;;;;;7.20;2.90;;;14.50;69.70;;;;;;5020473;28;20044;-62
2021/05/19 20:41:35;;;;;;;3.70;3.00;;;14.50;70.00;;;;;;5041278;28;20071;-61
2021/05/19 20:44:01;;;;;;;4.95;2.45;;;14.40;70.20;;;;;;5022243;28;20029;-58
2021/05/19 20:46:27;;;;;;;4.90;3.10;;;14.40;70.10;;;;;;5043686;28;20033;-61
2021/05/19 20:48:54;;;;;;;5.88;2.90;;;14.30;70.20;;;;;;5045077;28;20057;-62
2021/05/19 20:51:22;;;;;;;5.38;2.80;;;14.40;69.90;;;;;;5040377;28;20060;-62
2021/05/19 20:53:48;;;;;;;3.30;2.80;;;14.50;69.50;;;;;;5047212;28;20036;-62
2021/05/19 20:56:14;;;;;;;4.25;3.05;;;14.60;69.30;;;;;;5024807;28;20049;-61
2021/05/19 20:58:40;;;;;;;4.82;3.42;;;14.70;68.90;;;;;;5041950;28;20037;-59
2021/05/19 21:01:07;;;;;;;3.53;3.10;;;14.80;69.00;;;;;;5042108;28;20518;-62
2021/05/19 21:03:32;;;;;;;4.78;3.25;;;14.90;68.70;;;;;;5028502;28;20143;-58
2021/05/19 21:05:58;;;;;;;4.15;3.17;;;14.90;68.40;;;;;;5034249;28;20112;-59
2021/05/19 21:08:42;;;;;;;3.20;2.50;;;15.00;68.10;;;;;;5030393;28;20036;-58